Time;durP1;ratioP1;P1;durP2;ratioP2;P2;SDS_P1;SDS_P2;PMS_P1;PMS_P2;Temp;Humidity;BMP_temperature;BMP_pressure;BME280_temperature;BME280_humidity;BME280_pressure;Samples;Min_cycle;Max_cycle;Signal;HPM_P1;HPM_P2
2022/04/12 00:00:26;;;;;;;7.88;4.43;;;;;;;4.11;52.12;95617.28;6265095;22;20016;-82
2022/04/12 00:02:51;;;;;;;7.78;4.57;;;;;;;4.65;52.16;95703.78;6265202;22;20538;-83
2022/04/12 00:05:18;;;;;;;9.50;3.88;;;;;;;4.18;51.79;95621.44;6265096;22;20026;-82
2022/04/12 00:07:43;;;;;;;10.95;4.25;;;;;;;4.53;51.67;95679.31;6266030;22;20007;-83
2022/04/12 00:10:11;;;;;;;9.95;3.67;;;;;;;3.77;52.51;95595.09;6264862;22;20014;-83
2022/04/12 00:12:37;;;;;;;11.20;4.45;;;;;;;4.12;52.73;95643.28;6265524;22;20015;-83
2022/04/12 00:15:05;;;;;;;16.88;4.90;;;;;;;4.07;52.44;95619.53;6264983;22;20019;-83
2022/04/12 00:20:16;;;;;;;18.25;4.82;;;;;;;3.79;52.14;95558.97;6266572;22;20026;-83
2022/04/12 00:22:42;;;;;;;10.35;4.10;;;;;;;4.04;51.59;95558.84;6267060;22;20561;-83
2022/04/12 00:25:10;;;;;;;9.93;4.60;;;;;;;4.46;51.96;95641.84;6266784;22;20093;-83
2022/04/12 00:27:36;;;;;;;8.93;4.75;;;;;;;3.37;51.85;95440.88;6266373;22;20279;-82
2022/04/12 00:30:07;;;;;;;14.75;5.13;;;;;;;4.42;51.81;95611.00;6265238;22;20402;-83
2022/04/12 00:32:33;;;;;;;10.88;4.53;;;;;;;3.88;51.47;95526.16;6263446;22;20012;-83
2022/04/12 00:34:59;;;;;;;9.32;4.68;;;;;;;4.82;51.84;95669.00;6265374;22;20093;-83
2022/04/12 00:37:25;;;;;;;13.38;4.72;;;;;;;4.40;51.58;95577.09;6263126;22;20008;-84
2022/04/12 00:39:50;;;;;;;12.77;4.72;;;;;;;4.30;51.50;95558.44;6266292;22;20037;-83
2022/04/12 00:42:16;;;;;;;11.07;4.38;;;;;;;4.66;51.64;95629.19;6266035;22;20007;-83
2022/04/12 00:44:41;;;;;;;13.63;5.72;;;;;;;4.73;51.85;95631.72;6263059;22;20154;-84
2022/04/12 00:47:07;;;;;;;12.50;5.57;;;;;;;4.58;51.98;95590.13;6266793;22;20015;-83
2022/04/12 00:49:32;;;;;;;8.55;4.82;;;;;;;5.18;51.66;95684.63;6265567;22;20008;-83
2022/04/12 00:51:58;;;;;;;10.35;4.80;;;;;;;4.95;51.85;95645.97;6264868;22;20348;-83
2022/04/12 00:54:25;;;;;;;9.05;4.55;;;;;;;5.11;52.28;95680.50;6264086;22;20485;-84
2022/04/12 00:56:52;;;;;;;10.10;5.30;;;;;;;3.90;52.29;95518.84;6264028;22;20189;-84
2022/04/12 00:59:19;;;;;;;9.25;4.90;;;;;;;4.91;52.50;95675.53;6265923;22;20097;-83
2022/04/12 01:01:44;;;;;;;10.18;5.03;;;;;;;4.15;52.75;95573.81;6262895;22;20437;-84
2022/04/12 01:04:10;;;;;;;13.55;5.65;;;;;;;4.18;53.20;95584.69;6265678;22;20059;-83
2022/04/12 01:06:37;;;;;;;13.15;6.07;;;;;;;4.43;53.03;95607.31;6264148;22;20018;-83
2022/04/12 01:09:05;;;;;;;12.82;5.53;;;;;;;4.85;53.24;95681.69;6263962;22;20007;-83
2022/04/12 01:11:33;;;;;;;19.15;6.47;;;;;;;4.19;52.99;95562.66;6266090;22;20466;-83
2022/04/12 01:13:59;;;;;;;15.52;4.97;;;;;;;4.36;53.92;95627.63;6263925;22;20144;-84
2022/04/12 01:16:25;;;;;;;19.30;4.65;;;;;;;4.53;53.92;95634.66;6265659;22;20423;-86
2022/04/12 01:18:50;;;;;;;14.60;5.68;;;;;;;4.41;54.50;95636.47;6264088;22;20007;-84
2022/04/12 01:21:16;;;;;;;14.63;5.78;;;;;;;4.71;54.49;95667.16;6263160;22;20076;-83
2022/04/12 01:23:59;;;;;;;12.80;5.47;;;;;;;4.73;54.58;95673.00;6263507;22;20490;-84
2022/04/12 01:26:24;;;;;;;18.63;5.85;;;;;;;4.44;54.14;95620.25;6263795;22;20015;-83
2022/04/12 01:28:50;;;;;;;13.50;5.50;;;;;;;4.61;54.90;95668.50;6264680;22;20552;-82
2022/04/12 01:31:16;;;;;;;9.85;5.32;;;;;;;4.58;55.33;95676.81;6264102;22;20094;-83
2022/04/12 01:33:41;;;;;;;17.45;5.85;;;;;;;4.52;55.19;95667.19;6266336;22;20026;-83
2022/04/12 01:36:07;;;;;;;20.08;5.90;;;;;;;3.74;55.05;95543.88;6266564;22;20015;-83
2022/04/12 01:38:32;;;;;;;15.65;5.40;;;;;;;4.33;54.72;95623.66;6266903;22;20011;-83
2022/04/12 01:40:58;;;;;;;11.77;5.53;;;;;;;3.85;55.01;95589.56;6264382;22;20016;-83
2022/04/12 01:43:23;;;;;;;16.30;6.25;;;;;;;3.38;55.79;95531.59;6261567;22;20427;-83
2022/04/12 01:45:48;;;;;;;17.52;5.38;;;;;;;3.75;56.00;95594.50;6210111;23;20012;-83
2022/04/12 01:48:14;;;;;;;21.88;6.00;;;;;;;3.44;55.66;95519.44;6209982;23;20015;-83
2022/04/12 01:50:39;;;;;;;12.65;5.57;;;;;;;3.61;56.42;95577.34;6235262;23;20452;-83
2022/04/12 01:53:05;;;;;;;16.92;6.20;;;;;;;3.66;56.06;95572.25;6207134;23;20447;-83
2022/04/12 01:55:31;;;;;;;9.25;5.38;;;;;;;3.54;56.06;95545.94;6208291;23;20020;-82
2022/04/12 01:57:56;;;;;;;16.25;5.57;;;;;;;3.48;56.11;95549.44;6209639;23;20069;-84
2022/04/12 02:00:22;;;;;;;14.20;6.07;;;;;;;3.82;56.44;95609.16;6239360;23;20035;-83
2022/04/12 02:02:47;;;;;;;26.48;6.07;;;;;;;2.45;55.91;95391.38;6237137;23;20004;-83
2022/04/12 02:05:13;;;;;;;30.23;8.45;;;;;;;3.86;56.22;95607.69;6236417;23;20023;-83
2022/04/12 02:07:43;;;;;;;15.00;5.63;;;;;;;3.43;55.80;95528.34;6210408;23;20035;-83
2022/04/12 02:10:09;;;;;;;23.67;6.18;;;;;;;3.52;55.87;95550.59;6237474;23;20018;-83
2022/04/12 02:12:34;;;;;;;16.48;5.63;;;;;;;3.43;57.00;95620.88;6237632;23;20011;-82
2022/04/12 02:15:00;;;;;;;13.88;6.07;;;;;;;2.90;57.13;95507.16;6236630;23;20012;-82
2022/04/12 02:17:27;;;;;;;14.07;5.93;;;;;;;2.94;58.36;95548.41;6237045;23;20065;-83
2022/04/12 02:19:52;;;;;;;15.73;6.15;;;;;;;2.66;57.88;95496.53;6209342;23;20016;-82
2022/04/12 02:22:18;;;;;;;13.07;6.13;;;;;;;3.08;58.52;95578.72;6236984;23;20008;-83
2022/04/12 02:24:43;;;;;;;24.25;9.25;;;;;;;2.53;58.13;95485.34;6210675;23;20012;-83
2022/04/12 02:27:09;;;;;;;13.50;5.65;;;;;;;3.45;57.97;95615.44;6237304;23;20012;-83
2022/04/12 02:29:35;;;;;;;16.30;5.22;;;;;;;3.75;58.22;95665.34;6212470;23;20012;-84
2022/04/12 02:32:00;;;;;;;26.33;6.55;;;;;;;3.29;58.29;95605.50;6241900;23;20043;-82
2022/04/12 02:34:26;;;;;;;18.38;7.72;;;;;;;3.53;57.99;95624.81;6214190;23;20008;-84
2022/04/12 02:36:51;;;;;;;14.07;6.55;;;;;;;3.63;58.10;95653.97;6214077;23;20008;-83
2022/04/12 02:39:17;;;;;;;24.25;7.55;;;;;;;2.47;58.91;95480.97;6210202;23;20023;-83
2022/04/12 02:41:42;;;;;;;13.30;6.63;;;;;;;3.49;58.74;95645.47;6209228;23;20031;-83
2022/04/12 02:44:08;;;;;;;15.68;6.57;;;;;;;3.07;58.85;95587.59;6238173;22;20068;-83
2022/04/12 02:46:33;;;;;;;18.05;7.22;;;;;;;2.69;59.92;95576.44;6209565;23;20012;-83
2022/04/12 02:48:58;;;;;;;18.88;8.13;;;;;;;3.28;60.40;95667.63;6210030;23;20004;-84
2022/04/12 02:51:24;;;;;;;18.15;7.20;;;;;;;2.21;60.68;95519.44;6210819;23;20012;-86
2022/04/12 02:53:49;;;;;;;16.83;6.97;;;;;;;2.81;60.26;95600.94;6210272;23;20031;-83
2022/04/12 02:56:15;;;;;;;27.83;7.88;;;;;;;2.80;60.54;95615.06;6210896;23;20018;-84
2022/04/12 02:58:40;;;;;;;25.10;8.88;;;;;;;3.17;60.81;95668.34;6210433;23;20018;-82
2022/04/12 03:01:06;;;;;;;23.02;8.30;;;;;;;3.15;60.93;95675.63;6237544;23;20076;-83
2022/04/12 03:03:32;;;;;;;16.77;8.00;;;;;;;3.00;61.28;95665.47;6209629;23;20023;-83
2022/04/12 03:05:58;;;;;;;24.48;8.68;;;;;;;3.18;60.04;95661.28;6237855;23;20354;-82
2022/04/12 03:08:24;;;;;;;28.85;8.40;;;;;;;2.62;60.13;95579.13;6236347;23;20008;-83
2022/04/12 03:10:49;;;;;;;18.98;7.85;;;;;;;3.06;60.20;95632.34;6209142;23;20022;-84
2022/04/12 03:13:15;;;;;;;18.55;8.88;;;;;;;2.58;60.17;95580.59;6208882;23;20141;-83
2022/04/12 03:15:40;;;;;;;25.85;8.55;;;;;;;3.02;60.78;95642.47;6209341;23;20122;-83
2022/04/12 03:18:06;;;;;;;20.77;8.30;;;;;;;2.92;60.16;95625.63;6209451;23;20081;-85
2022/04/12 03:20:32;;;;;;;19.98;7.35;;;;;;;2.45;60.68;95588.50;6237154;23;20012;-82
2022/04/12 03:22:58;;;;;;;21.73;8.30;;;;;;;1.44;60.56;95452.56;6236846;23;20447;-82
2022/04/12 03:25:24;;;;;;;16.42;8.00;;;;;;;1.93;60.39;95525.06;6207781;23;20008;-83
2022/04/12 03:27:50;;;;;;;20.42;8.88;;;;;;;2.84;60.80;95676.47;6210003;23;20008;-83
2022/04/12 03:30:16;;;;;;;19.40;8.38;;;;;;;2.13;60.68;95552.94;6210103;23;20012;-84
2022/04/12 03:32:41;;;;;;;18.63;8.35;;;;;;;3.00;60.72;95686.41;6210089;23;20650;-83
2022/04/12 03:35:07;;;;;;;19.90;8.60;;;;;;;1.92;59.91;95512.19;6236455;23;20008;-83
2022/04/12 03:37:33;;;;;;;20.90;8.27;;;;;;;1.99;60.27;95533.88;6235195;23;20012;-83
2022/04/12 03:39:58;;;;;;;19.25;8.00;;;;;;;2.86;60.56;95660.53;6208540;23;20028;-84
2022/04/12 03:42:23;;;;;;;16.38;8.40;;;;;;;2.15;60.81;95570.00;6209748;23;20004;-83
2022/04/12 03:44:49;;;;;;;18.85;8.93;;;;;;;2.35;60.81;95574.31;6236047;22;20332;-82
2022/04/12 03:47:15;;;;;;;23.13;9.38;;;;;;;2.65;60.27;95636.31;6236510;23;20368;-82
2022/04/12 03:49:40;;;;;;;34.05;9.57;;;;;;;1.84;60.02;95489.72;6209616;23;20035;-82
2022/04/12 03:52:06;;;;;;;27.60;9.60;;;;;;;2.63;59.79;95606.91;6210639;23;20011;-82
2022/04/12 03:54:32;;;;;;;29.15;11.23;;;;;;;2.51;60.10;95608.63;6210041;23;20564;-83
2022/04/12 03:56:57;;;;;;;18.45;8.82;;;;;;;2.92;60.33;95665.72;6209183;23;20012;-84
2022/04/12 03:59:24;;;;;;;26.38;9.55;;;;;;;2.83;60.79;95685.34;6209923;23;20011;-83
2022/04/12 04:01:50;;;;;;;20.55;9.75;;;;;;;2.64;60.98;95652.25;6209355;23;20351;-82
2022/04/12 04:04:16;;;;;;;27.15;10.10;;;;;;;2.57;60.15;95617.44;6208650;23;20313;-83
2022/04/12 04:06:41;;;;;;;26.23;10.48;;;;;;;2.97;60.73;95689.47;6234228;23;20012;-83
2022/04/12 04:09:07;;;;;;;25.48;9.68;;;;;;;2.42;60.29;95624.81;6234690;23;20010;-83
2022/04/12 04:11:33;;;;;;;20.65;9.60;;;;;;;2.53;60.05;95648.47;6209600;23;20004;-83
2022/04/12 04:14:00;;;;;;;18.80;8.98;;;;;;;2.22;59.66;95569.94;6210310;23;20341;-84
2022/04/12 04:16:26;;;;;;;25.05;10.43;;;;;;;2.64;59.32;95645.19;6235584;23;20387;-87
2022/04/12 04:18:51;;;;;;;24.33;9.85;;;;;;;2.49;59.53;95613.28;6210191;22;20008;-87
2022/04/12 04:21:17;;;;;;;21.58;10.25;;;;;;;1.54;60.21;95479.03;6209598;23;20102;-87
2022/04/12 04:23:42;;;;;;;35.03;11.23;;;;;;;2.55;60.81;95650.88;6206292;23;20323;-87
2022/04/12 04:26:08;;;;;;;26.25;10.98;;;;;;;2.06;60.61;95604.50;6207403;23;20012;-88
2022/04/12 04:28:36;;;;;;;26.60;10.13;;;;;;;1.23;60.26;95418.09;6205116;23;20744;-85
2022/04/12 04:32:02;;;;;;;23.42;10.48;;;;;;;-2.21;59.65;94911.34;6206958;23;20027;-85
2022/04/12 04:34:27;;;;;;;28.15;10.70;;;;;;;-2.48;59.09;94872.38;6187915;23;20012;-86
2022/04/12 04:36:53;;;;;;;28.10;10.82;;;;;;;-2.61;59.01;94864.59;6203510;23;20008;-86
2022/04/12 04:39:18;;;;;;;27.95;11.82;;;;;;;1.43;58.92;95437.09;6232063;23;20447;-86
2022/04/12 04:41:44;;;;;;;24.50;11.55;;;;;;;-2.32;58.66;94915.34;6200126;23;20243;-87
2022/04/12 04:44:13;;;;;;;23.35;11.60;;;;;;;0.99;58.82;95356.97;6226205;22;20374;-87
2022/04/12 04:46:56;;;;;;;22.75;11.07;;;;;;;1.53;58.94;95484.47;6267569;22;20297;-87
2022/04/12 04:49:21;;;;;;;27.05;11.80;;;;;;;1.31;58.83;95396.94;6263106;22;20004;-88
2022/04/12 04:51:49;;;;;;;25.13;11.00;;;;;;;-1.13;58.56;95053.75;6275231;22;20098;-88
2022/04/12 04:54:14;;;;;;;23.65;12.35;;;;;;;3.01;58.46;95676.75;6280060;22;20031;-82
2022/04/12 04:56:40;;;;;;;31.77;12.20;;;;;;;2.85;58.37;95614.41;6266762;22;20085;-82
2022/04/12 04:59:06;;;;;;;26.10;10.90;;;;;;;3.32;58.05;95715.19;6257923;22;20008;-82
2022/04/12 05:01:32;;;;;;;28.08;12.32;;;;;;;-1.60;57.96;94977.63;6255827;22;20011;-83
2022/04/12 05:03:57;;;;;;;25.25;12.48;;;;;;;1.80;57.67;95472.06;6262395;22;20020;-84
2022/04/12 05:06:23;;;;;;;30.77;12.05;;;;;;;3.26;57.09;95658.41;6260331;22;20018;-83
2022/04/12 05:08:48;;;;;;;33.10;12.32;;;;;;;3.34;56.50;95681.72;6262394;22;20357;-84
2022/04/12 05:11:14;;;;;;;31.75;12.07;;;;;;;3.07;56.92;95621.66;6260378;22;20011;-83
2022/04/12 05:13:40;;;;;;;34.25;13.85;;;;;;;3.72;57.24;95737.44;6258121;22;20121;-83
2022/04/12 05:16:05;;;;;;;38.05;11.75;;;;;;;3.10;56.75;95636.97;6254773;22;20015;-84
2022/04/12 05:18:30;;;;;;;33.72;12.07;;;;;;;3.49;57.19;95703.16;6259039;22;20004;-84
2022/04/12 05:20:56;;;;;;;29.77;11.60;;;;;;;2.64;56.80;95587.56;6258097;22;20011;-85
2022/04/12 05:23:22;;;;;;;36.55;11.95;;;;;;;1.20;56.88;95340.16;6260825;22;20156;-86
2022/04/12 05:25:47;;;;;;;31.33;11.75;;;;;;;3.65;56.40;95707.03;6257766;22;20012;-84
2022/04/12 05:28:13;;;;;;;37.08;13.25;;;;;;;2.76;56.04;95636.63;6259821;22;20004;-84
2022/04/12 05:30:38;;;;;;;44.83;14.40;;;;;;;2.35;56.39;95527.19;6257549;22;20015;-84
2022/04/12 05:33:04;;;;;;;43.55;13.90;;;;;;;3.75;56.06;95729.09;6258749;22;20042;-85
2022/04/12 05:35:30;;;;;;;56.63;13.68;;;;;;;2.85;56.97;95633.53;6257672;22;20035;-84
2022/04/12 05:37:56;;;;;;;47.70;14.82;;;;;;;2.37;56.48;95531.19;6249162;22;20354;-84
2022/04/12 05:40:22;;;;;;;30.35;13.05;;;;;;;2.99;56.16;95628.97;6256785;22;20426;-84
2022/04/12 05:42:48;;;;;;;45.83;15.23;;;;;;;1.87;56.34;95441.44;6259634;22;20177;-84
2022/04/12 05:45:15;;;;;;;35.13;13.30;;;;;;;3.12;56.20;95628.88;6258753;22;20020;-84
2022/04/12 05:47:51;;;;;;;31.08;12.23;;;;;;;2.58;55.95;95564.88;6258114;22;20231;-84
2022/04/12 05:50:21;;;;;;;38.35;13.43;;;;;;;3.26;56.86;95664.44;6258066;22;20104;-84
2022/04/12 05:52:47;;;;;;;30.13;12.88;;;;;;;3.03;57.11;95656.38;6250417;22;20117;-84
2022/04/12 05:55:17;;;;;;;35.30;12.80;;;;;;;2.97;56.42;95615.31;6260175;22;20068;-84
2022/04/12 05:58:00;;;;;;;33.80;13.07;;;;;;;3.63;56.60;95722.97;6258869;22;20007;-84
2022/04/12 06:00:27;;;;;;;29.85;11.82;;;;;;;3.18;56.43;95645.56;6253686;22;20019;-84
2022/04/12 06:02:55;;;;;;;45.95;13.77;;;;;;;3.46;56.71;95685.22;6253951;22;20019;-81
2022/04/12 06:05:29;;;;;;;43.00;16.02;;;;;;;3.78;56.62;95733.13;6259277;22;20022;-82
2022/04/12 06:07:54;;;;;;;25.90;13.50;;;;;;;3.43;56.56;95686.44;6256788;22;20003;-83
2022/04/12 06:10:22;;;;;;;34.83;15.73;;;;;;;3.61;56.34;95696.16;6256301;22;20401;-84
2022/04/12 06:12:49;;;;;;;43.75;16.90;;;;;;;1.53;56.07;95359.81;6258651;22;20071;-84
2022/04/12 06:15:15;;;;;;;33.25;14.07;;;;;;;0.95;55.83;95264.38;6253242;22;20085;-84
2022/04/12 06:17:41;;;;;;;40.80;14.25;;;;;;;3.23;55.68;95643.09;6251802;22;20020;-85
2022/04/12 06:20:09;;;;;;;39.67;15.00;;;;;;;4.06;55.79;95751.78;6250837;22;20015;-82
2022/04/12 06:22:35;;;;;;;34.25;13.85;;;;;;;3.63;56.25;95688.88;6252841;22;20407;-82
2022/04/12 06:25:02;;;;;;;27.33;10.65;;;;;;;3.34;56.25;95663.34;6251741;22;20036;-83
2022/04/12 06:27:36;;;;;;;22.63;10.93;;;;;;;4.00;56.97;95757.94;6257100;22;20211;-82
2022/04/12 06:30:07;;;;;;;22.17;10.80;;;;;;;3.80;57.64;95754.72;6256032;22;20054;-82
2022/04/12 06:32:33;;;;;;;27.17;11.40;;;;;;;3.40;57.50;95678.22;6256453;22;20007;-82
2022/04/12 06:35:00;;;;;;;27.63;10.70;;;;;;;2.94;58.14;95631.47;6253535;22;20134;-83
2022/04/12 06:37:27;;;;;;;24.75;10.82;;;;;;;3.91;58.14;95756.59;6250269;22;20019;-82
2022/04/12 06:39:52;;;;;;;31.48;10.75;;;;;;;4.09;57.97;95763.69;6250794;22;20035;-82
2022/04/12 06:42:18;;;;;;;32.08;11.18;;;;;;;3.00;57.99;95589.47;6253712;22;20008;-84
2022/04/12 06:44:44;;;;;;;23.88;10.40;;;;;;;4.14;58.39;95767.25;6251164;22;20106;-83
2022/04/12 06:47:09;;;;;;;24.58;10.35;;;;;;;4.10;57.71;95750.34;6256442;22;20019;-83
2022/04/12 06:49:35;;;;;;;23.63;10.57;;;;;;;3.24;57.29;95550.34;6259432;22;20159;-84
2022/04/12 06:52:00;;;;;;;32.97;10.23;;;;;;;4.41;57.71;95767.78;6254946;22;20011;-82
2022/04/12 06:54:27;;;;;;;26.88;10.55;;;;;;;4.52;57.69;95764.38;6252522;22;20449;-83
2022/04/12 06:56:52;;;;;;;27.85;11.32;;;;;;;4.41;57.45;95736.25;6254772;22;20553;-83
2022/04/12 06:59:18;;;;;;;30.60;10.93;;;;;;;4.31;57.38;95699.22;6253335;22;20444;-83
2022/04/12 07:01:43;;;;;;;22.35;11.23;;;;;;;4.02;57.39;95653.53;6255134;22;20004;-82
2022/04/12 07:04:09;;;;;;;22.95;11.27;;;;;;;4.93;57.21;95757.59;6249402;22;20012;-81
2022/04/12 07:06:35;;;;;;;23.15;11.23;;;;;;;4.61;57.80;95733.38;6247799;22;20074;-81
2022/04/12 07:09:01;;;;;;;24.20;11.80;;;;;;;4.61;57.15;95696.59;6250807;22;20128;-81
2022/04/12 07:11:26;;;;;;;30.20;11.68;;;;;;;4.41;57.19;95673.22;6252592;22;20125;-81
2022/04/12 07:13:54;;;;;;;27.83;11.52;;;;;;;4.64;57.45;95686.44;6251603;22;20488;-83
2022/04/12 07:16:19;;;;;;;24.05;9.95;;;;;;;4.85;56.87;95694.84;6249949;22;20014;-83
2022/04/12 07:18:45;;;;;;;31.45;12.20;;;;;;;4.31;57.32;95606.50;6252951;22;20008;-82
2022/04/12 07:21:10;;;;;;;31.83;12.43;;;;;;;4.97;57.15;95721.94;6251891;22;20019;-83
2022/04/12 07:23:41;;;;;;;31.02;13.30;;;;;;;5.02;56.71;95715.00;6250559;22;20017;-83
2022/04/12 07:26:06;;;;;;;29.80;12.00;;;;;;;5.30;56.39;95745.09;6247889;22;20038;-83
2022/04/12 07:28:32;;;;;;;30.13;11.43;;;;;;;3.52;55.75;95473.75;6248668;22;20004;-83
2022/04/12 07:30:57;;;;;;;32.08;10.45;;;;;;;5.17;55.27;95716.41;6253006;22;20023;-83
2022/04/12 07:33:23;;;;;;;26.95;10.18;;;;;;;4.39;54.73;95603.56;6252001;22;20016;-83
2022/04/12 07:35:48;;;;;;;20.48;9.43;;;;;;;3.94;54.20;95508.69;6250411;22;20122;-83
2022/04/12 07:38:14;;;;;;;28.50;9.70;;;;;;;5.51;54.40;95752.44;6248992;22;20222;-83
2022/04/12 07:40:39;;;;;;;17.98;9.40;;;;;;;5.04;52.95;95673.50;6252974;22;20414;-83
2022/04/12 07:43:07;;;;;;;20.42;8.45;;;;;;;4.85;53.33;95616.00;6250120;22;20034;-83
2022/04/12 07:45:33;;;;;;;24.45;7.82;;;;;;;5.33;51.80;95666.56;6254348;22;20212;-83
2022/04/12 07:47:59;;;;;;;18.17;8.70;;;;;;;4.54;50.99;95510.19;6245409;22;20450;-83
2022/04/12 07:50:25;;;;;;;14.75;7.00;;;;;;;5.05;50.48;95577.03;6256121;22;20011;-84
2022/04/12 07:52:53;;;;;;;18.67;7.03;;;;;;;6.19;49.18;95739.50;6248792;22;20494;-84
2022/04/12 07:55:19;;;;;;;11.70;5.22;;;;;;;4.06;46.45;95386.16;6249549;22;20004;-83
2022/04/12 07:57:44;;;;;;;10.55;3.85;;;;;;;6.23;44.11;95710.09;6248947;22;20015;-84
2022/04/12 08:00:10;;;;;;;15.90;3.75;;;;;;;5.85;43.30;95650.03;6248006;22;20019;-83
2022/04/12 08:02:36;;;;;;;6.63;3.72;;;;;;;5.92;42.74;95648.91;6251413;22;20322;-83
2022/04/12 08:05:01;;;;;;;6.63;3.60;;;;;;;5.65;42.21;95572.25;6252317;22;20327;-84
2022/04/12 08:07:27;;;;;;;9.93;3.28;;;;;;;6.74;41.64;95730.31;6259866;22;20118;-84
2022/04/12 08:09:55;;;;;;;4.68;2.97;;;;;;;5.24;41.31;95483.06;6260508;22;20078;-84
2022/04/12 08:12:22;;;;;;;6.07;3.17;;;;;;;6.85;40.52;95732.09;6255398;22;20111;-83
2022/04/12 08:14:47;;;;;;;8.40;3.33;;;;;;;6.19;41.26;95596.50;6249517;22;20471;-83
2022/04/12 08:17:13;;;;;;;11.05;3.10;;;;;;;6.51;40.79;95647.69;6243970;22;20016;-82
2022/04/12 08:19:38;;;;;;;7.75;3.60;;;;;;;7.06;41.22;95709.53;6260633;22;20011;-82
2022/04/12 08:22:04;;;;;;;6.78;3.30;;;;;;;6.51;40.49;95636.34;6254846;22;20072;-83
2022/04/12 08:24:29;;;;;;;9.05;3.40;;;;;;;6.68;40.83;95668.00;6253841;22;20007;-82
2022/04/12 08:26:55;;;;;;;6.93;3.15;;;;;;;6.65;40.30;95684.28;6255070;22;20015;-83
2022/04/12 08:29:20;;;;;;;7.90;3.60;;;;;;;6.57;40.67;95641.44;6252268;22;20012;-82
2022/04/12 08:31:46;;;;;;;7.00;2.85;;;;;;;6.64;40.51;95627.34;6252945;22;20014;-84
2022/04/12 08:34:11;;;;;;;7.72;3.95;;;;;;;6.69;41.56;95619.53;6246413;22;20152;-84
2022/04/12 08:36:37;;;;;;;10.07;3.72;;;;;;;7.16;40.71;95691.25;6254103;22;20012;-82
2022/04/12 08:39:03;;;;;;;4.30;3.00;;;;;;;7.24;39.81;95702.19;6252600;22;20151;-82
2022/04/12 08:41:31;;;;;;;12.35;3.22;;;;;;;7.30;40.01;95684.59;6253653;22;20015;-83
2022/04/12 08:43:59;;;;;;;15.85;4.55;;;;;;;7.33;40.60;95681.47;6241712;22;20015;-82
2022/04/12 08:46:26;;;;;;;7.75;3.05;;;;;;;7.55;40.06;95684.97;6225596;23;20451;-83
2022/04/12 08:48:53;;;;;;;7.57;2.33;;;;;;;6.81;38.95;95555.13;6224631;23;20258;-83
2022/04/12 08:51:20;;;;;;;8.23;3.25;;;;;;;7.53;39.52;95676.50;6221417;23;20087;-83
2022/04/12 08:53:45;;;;;;;8.15;2.70;;;;;;;7.55;38.70;95692.13;6194430;23;19996;-83
2022/04/12 08:56:11;;;;;;;8.52;2.80;;;;;;;7.46;39.78;95649.50;6198567;23;20008;-83
2022/04/12 08:58:37;;;;;;;7.95;3.33;;;;;;;7.72;39.79;95669.91;6223773;23;20454;-83
2022/04/12 09:01:03;;;;;;;6.63;2.95;;;;;;;7.68;37.97;95678.56;6194990;23;20012;-82
2022/04/12 09:03:28;;;;;;;11.00;3.80;;;;;;;7.63;38.19;95668.72;6171550;23;20795;-83
2022/04/12 09:05:54;;;;;;;8.48;3.30;;;;;;;6.73;37.93;95505.47;6219585;23;20012;-83
2022/04/12 09:08:28;;;;;;;5.78;3.28;;;;;;;7.42;38.03;95598.22;6194786;23;20455;-83
2022/04/12 09:11:03;;;;;;;8.18;3.30;;;;;;;7.56;38.52;95612.66;6192544;23;20161;-83
2022/04/12 09:13:29;;;;;;;10.63;3.38;;;;;;;7.83;37.78;95627.81;6224276;23;20012;-82
2022/04/12 09:15:55;;;;;;;8.90;2.95;;;;;;;8.12;37.83;95655.63;6192522;23;20116;-81
2022/04/12 09:18:33;;;;;;;6.78;3.10;;;;;;;8.12;38.41;95655.63;6192699;23;20107;-81
2022/04/12 09:21:17;;;;;;;8.75;3.25;;;;;;;8.27;38.23;95658.47;6195375;23;20263;-82
2022/04/12 09:23:53;;;;;;;5.00;2.67;;;;;;;7.98;38.31;95617.44;6194186;23;20020;-82
2022/04/12 09:26:30;;;;;;;6.75;2.78;;;;;;;7.94;38.09;95603.09;6221133;23;20011;-81
2022/04/12 09:28:58;;;;;;;5.30;2.70;;;;;;;8.03;39.12;95634.13;6196929;23;20004;-81
2022/04/12 09:31:24;;;;;;;5.43;2.28;;;;;;;7.97;38.75;95600.78;6200794;23;20093;-83
2022/04/12 09:33:53;;;;;;;6.03;2.75;;;;;;;8.22;40.10;95649.69;6230266;23;20004;-82
2022/04/12 09:36:19;;;;;;;5.35;2.53;;;;;;;8.36;38.39;95643.81;6199484;23;20502;-82
2022/04/12 09:38:46;;;;;;;5.70;2.85;;;;;;;6.79;39.14;95393.00;6195039;23;20012;-82
2022/04/12 09:41:26;;;;;;;9.63;3.28;;;;;;;7.96;39.30;95562.22;6194579;23;20069;-82
2022/04/12 09:44:11;;;;;;;7.60;2.35;;;;;;;7.47;38.46;95469.00;6207114;22;20078;-85
2022/04/12 09:46:39;;;;;;;9.48;3.28;;;;;;;8.67;38.53;95633.53;6252920;22;20054;-86
2022/04/12 09:49:06;;;;;;;4.88;2.75;;;;;;;8.14;38.79;95556.59;6255424;22;20205;-85
2022/04/12 09:51:36;;;;;;;4.35;2.60;;;;;;;6.07;38.40;95235.84;6258054;22;20071;-85
2022/04/12 09:54:06;;;;;;;5.75;2.55;;;;;;;8.03;39.34;95501.25;6254124;22;20011;-85
2022/04/12 09:56:32;;;;;;;5.78;2.47;;;;;;;9.14;38.58;95618.63;6257173;22;20571;-86
2022/04/12 09:59:00;;;;;;;11.50;3.60;;;;;;;8.70;37.43;95410.91;6257829;22;20008;-83
2022/04/12 10:01:27;;;;;;;5.05;2.83;;;;;;;6.14;36.35;94967.88;6251201;22;20015;-84
2022/04/12 10:03:58;;;;;;;4.32;2.28;;;;;;;10.91;34.15;95556.75;6252562;22;20250;-83
2022/04/12 10:06:26;;;;;;;6.57;3.00;;;;;;;11.78;33.44;95595.41;6253425;22;20435;-83
2022/04/12 10:09:11;;;;;;;11.68;2.50;;;;;;;11.94;31.95;95448.13;6261044;22;20314;-83
2022/04/12 10:11:45;;;;;;;4.93;2.83;;;;;;;10.22;31.36;95181.63;6277819;22;20267;-82
2022/04/12 10:14:38;;;;;;;6.30;2.33;;;;;;;12.96;30.75;95456.91;6247415;22;20026;-84
2022/04/12 10:17:04;;;;;;;7.22;2.40;;;;;;;13.90;28.86;95483.81;6245971;22;20008;-84
2022/04/12 10:19:30;;;;;;;10.93;2.70;;;;;;;12.61;28.24;95120.13;6255434;22;20111;-85
2022/04/12 10:21:55;;;;;;;7.43;2.55;;;;;;;15.68;28.00;95527.22;6231699;22;20310;-84
2022/04/12 10:24:22;;;;;;;6.95;2.88;;;;;;;16.00;26.90;95577.97;6262072;22;20016;-84
2022/04/12 10:26:50;;;;;;;8.60;2.78;;;;;;;15.37;26.49;95412.06;6226577;22;20016;-85
2022/04/12 10:29:15;;;;;;;8.10;2.33;;;;;;;14.49;27.03;95351.75;6230546;22;20439;-84
2022/04/12 10:32:03;;;;;;;8.23;3.25;;;;;;;15.76;27.30;95443.66;6225560;22;20012;-86
2022/04/12 10:34:28;;;;;;;5.70;2.15;;;;;;;16.31;26.23;95534.53;6219110;22;20446;-84
2022/04/12 10:37:04;;;;;;;7.30;2.13;;;;;;;15.80;26.08;95543.56;6215859;22;20012;-84
2022/04/12 10:40:01;;;;;;;6.57;2.40;;;;;;;16.47;26.88;95546.47;6220216;22;20020;-83
2022/04/12 10:42:33;;;;;;;8.80;2.42;;;;;;;13.67;26.60;95212.81;6216676;22;20519;-84
2022/04/12 10:45:01;;;;;;;5.53;2.70;;;;;;;15.50;27.63;95534.22;6223082;22;20041;-84
2022/04/12 10:47:33;;;;;;;10.43;2.22;;;;;;;15.48;27.83;95549.78;6225301;22;20012;-84
2022/04/12 10:50:03;;;;;;;6.93;2.80;;;;;;;15.70;27.46;95547.25;6223555;22;20734;-84
2022/04/12 10:52:48;;;;;;;6.30;2.00;;;;;;;15.32;27.34;95553.78;6246032;22;20400;-84
2022/04/12 10:55:15;;;;;;;6.93;2.15;;;;;;;15.79;27.19;95529.41;6229136;22;20094;-84
2022/04/12 10:57:41;;;;;;;3.47;1.98;;;;;;;16.38;26.20;95532.22;6236598;22;20443;-83
2022/04/12 11:00:18;;;;;;;10.02;2.38;;;;;;;16.15;25.95;95445.75;6258814;22;20018;-84
2022/04/12 11:02:53;;;;;;;6.50;2.35;;;;;;;16.25;25.28;95445.50;6228176;22;20106;-85
2022/04/12 11:05:39;;;;;;;7.03;2.67;;;;;;;16.54;25.46;95510.16;6253712;22;20210;-84
2022/04/12 11:08:06;;;;;;;5.00;2.20;;;;;;;16.35;25.93;95468.56;6227928;22;20074;-84
2022/04/12 11:10:32;;;;;;;7.55;2.58;;;;;;;16.40;25.38;95433.69;6222891;22;20012;-84
2022/04/12 11:13:11;;;;;;;9.82;2.25;;;;;;;16.72;24.93;95448.72;6249368;22;20022;-83
2022/04/12 11:15:40;;;;;;;7.13;1.98;;;;;;;16.75;24.85;95499.81;6223617;22;20028;-83
2022/04/12 11:18:06;;;;;;;4.38;2.08;;;;;;;16.73;24.93;95501.19;6244914;22;20336;-84
2022/04/12 11:20:32;;;;;;;8.85;2.03;;;;;;;16.59;24.78;95471.78;6218995;22;20034;-84
2022/04/12 11:23:02;;;;;;;9.93;2.38;;;;;;;16.37;24.50;95511.91;6216588;22;20016;-84
2022/04/12 11:25:27;;;;;;;6.43;2.45;;;;;;;16.39;25.40;95474.94;6223691;22;20253;-83
2022/04/12 11:27:57;;;;;;;5.10;2.10;;;;;;;16.53;24.86;95489.06;6222319;22;20004;-84
2022/04/12 11:30:25;;;;;;;6.53;2.03;;;;;;;15.56;25.06;95372.69;6226581;22;20271;-83
2022/04/12 11:32:53;;;;;;;3.13;1.83;;;;;;;16.41;23.73;95371.00;6226486;22;20038;-83
2022/04/12 11:35:20;;;;;;;12.23;2.08;;;;;;;16.89;24.02;95422.06;6222982;22;20016;-83